CBCO2: Big Creek near Childers, OK

                                SHEF ID:       CBCO2     Big Creek near Childers, OK
STATION TYPE:

PRECIP STAGE RIV-FLOW VOLTAGE BAT-LOAD
in ft cfs volt volt
Ccp-Rev Ccp-Rev Ccp-Rev Ccp-Rev Ccp-Rev
(America/Chicago)
04/29 00:00 0.00 9.83 290 12.88 12.44
04/29 01:00 0.00 9.83 290 12.88 12.44
04/29 02:00 0.00 9.83 290 12.86 12.43
04/29 03:00 0.00 9.86 310 12.86 12.42
04/29 04:00 0.00 9.90 335 12.85 12.41
04/29 05:00 0.00 9.90 335 12.86 12.40
04/29 06:00 0.00 9.90 335 12.84 12.40
04/29 07:00 0.00 9.87 316 12.84 12.39
04/29 08:00 0.00 9.85 303 13.05 12.42
04/29 09:00 0.00 9.82 284 13.41 12.72
04/29 10:00 0.00 9.78 262 13.39 12.89
04/29 11:00 0.00 9.77 257 13.37 12.88
04/29 12:00 0.00 9.73 239 13.36 12.88
04/29 13:00 0.00 9.73 239 13.32 12.80
04/29 14:00 0.00 9.71 230 13.32 12.82
04/29 15:00 0.00 9.70 226 13.26 12.76
04/29 16:00 0.00 9.67 213 13.28 12.73
04/29 17:00 0.00 9.67 213 13.30 12.76
04/29 18:00 0.00 9.65 205 13.23 12.74
04/29 19:00 0.00 9.63 196 13.14 12.71
04/29 20:00 0.00 9.63 196 13.06 12.63
04/29 21:00 0.00 9.62 192 13.03 12.59
04/29 22:00 0.00 9.60 184 12.99 12.56
04/29 23:00 0.00 9.59 179 12.96 12.54
Data processed at Thu 30Apr2026 04:38 GMT

NOTICE: If you are parsing this page

Please convert to using our Data API. Starting early 2026 we will be migrating to: https://water.usace.army.mil with modern pages rendered in JavaScript. When this migration completes you will no longer be able to scrape this page! CWMSDataAPI (CDA)

Timeseries IDs (TSIDs)

TSIDs used from left to right in the data table
CHIB.Precip-Inc.Total.1Hour.1Hour.Ccp-Rev
CHIB.Stage.Inst.1Hour.0.Ccp-Rev
CHIB.Flow.Inst.1Hour.0.Ccp-Rev
CHIB.Volt-Battery.Inst.1Hour.0.Ccp-Rev
CHIB.Volt-Battery Load.Inst.1Hour.0.Ccp-Rev

                            

All information presented herein is the property of the government of the United States of America and may be revised or deleted at any time without prior notice. Dissemination of this information without the expressed written consent of the Public Affairs Office, Tulsa District U.S. Army Corps of Engineers is strictly prohibited. These data are gathered electronically and, as presented, have NOT undergone any form of quality control. These data are NOT guaranteed to be valid or correct.